SBOSBO LTN / EGGW
Speedbird OnlineSpeedbird Online LTN / EGGW

London Luton Airport
12:30 19.2°C

Location London, United Kingdom
Latitude: 51.874698638916016
Longitude: -0.36833301186561584
Local Time 12:30 on 17 Jun 2024
UTC +1 hours (Europe/London)
METAR EGGW 171050Z AUTO 21005KT 130V260 9999 FEW039 19/09 Q1010
TAF TAF EGGW 170501Z 1706/1806 22007KT 9999 SCT030 BECMG 1715/1718 33010KT
Weather As Of 17 Jun 2024 12:30
Description Few clouds
Wind 9 km/h from South-West (210°)
Cloud Cover 20%
Precipitation Rain: none, Snow: none
Sunrise 04:41
Sunset 21:23
Rotations During the last 90 days there were
1 flights to LPL
Web Airport Website | Wikipedia
Codes IATA: LTN
ICAO: EGGW
Altitude 160 Meter / 526 Feet
Distance 53 KM / 33 Miles
from London.
Runways
RunwayLength (m)Surface
072162Asphalt
252162Asphalt
Radio
TypeDescriptionFrequency
APPAPP129.55
ATISATIS120.575
GNDGND121.75
TWRTWR132.55
Live ATC



Support Speedbird Online

© 2017-2024 Speedbird Online